Time;durP1;ratioP1;P1;durP2;ratioP2;P2;SDS_P1;SDS_P2;PMS_P1;PMS_P2;Temp;Humidity;BMP_temperature;BMP_pressure;BME280_temperature;BME280_humidity;BME280_pressure;Samples;Min_cycle;Max_cycle;Signal;HPM_P1;HPM_P2
2023/08/31 00:00:53;;;;;;;3.97;2.13;;;;;;;12.81;100.00;100716.13;5015848;28;20049;-68
2023/08/31 00:03:19;;;;;;;4.55;2.50;;;;;;;12.83;100.00;100715.97;5023371;28;20052;-67
2023/08/31 00:05:46;;;;;;;5.45;2.35;;;;;;;12.86;100.00;100708.59;5019646;28;20064;-67
2023/08/31 00:08:13;;;;;;;4.70;2.03;;;;;;;12.85;100.00;100716.63;5020850;28;20057;-68
2023/08/31 00:10:40;;;;;;;4.13;2.42;;;;;;;12.83;100.00;100708.91;5012253;28;20041;-67
2023/08/31 00:13:07;;;;;;;4.53;2.35;;;;;;;12.85;100.00;100714.00;5021664;28;20038;-67
2023/08/31 00:15:35;;;;;;;2.75;1.90;;;;;;;12.78;100.00;100713.00;5007585;28;20049;-67
2023/08/31 00:18:06;;;;;;;6.65;1.90;;;;;;;12.78;100.00;100710.38;5013283;28;20513;-67
2023/08/31 00:20:33;;;;;;;7.18;2.50;;;;;;;12.70;100.00;100705.94;5012629;28;20054;-67
2023/08/31 00:23:00;;;;;;;5.38;1.83;;;;;;;12.70;100.00;100711.22;5017310;28;20046;-68
2023/08/31 00:25:28;;;;;;;5.78;2.17;;;;;;;12.62;100.00;100712.03;5012931;28;20050;-68
2023/08/31 00:27:56;;;;;;;4.63;1.98;;;;;;;12.63;100.00;100710.22;4989893;28;20094;-67
2023/08/31 00:30:28;;;;;;;4.60;1.92;;;;;;;12.55;100.00;100705.75;5016088;28;20091;-67
2023/08/31 00:32:55;;;;;;;5.60;2.10;;;;;;;12.46;100.00;100704.91;5018173;28;20061;-68
2023/08/31 00:35:22;;;;;;;2.72;1.80;;;;;;;12.36;100.00;100696.34;5014292;28;20060;-67
2023/08/31 00:37:49;;;;;;;3.58;2.40;;;;;;;12.32;100.00;100688.94;5021983;28;20080;-68
2023/08/31 00:40:16;;;;;;;6.20;2.70;;;;;;;12.31;100.00;100696.00;5011740;28;20399;-67
2023/08/31 00:42:42;;;;;;;5.40;2.40;;;;;;;12.26;100.00;100685.16;5008966;28;20046;-67
2023/08/31 00:45:10;;;;;;;7.55;2.88;;;;;;;12.25;100.00;100694.00;5024539;28;20057;-67
2023/08/31 00:47:36;;;;;;;5.65;3.00;;;;;;;12.19;100.00;100690.22;5011965;28;20462;-67
2023/08/31 00:50:03;;;;;;;6.18;3.38;;;;;;;12.21;100.00;100693.53;5024175;28;20053;-67
2023/08/31 00:52:30;;;;;;;8.00;3.65;;;;;;;12.23;100.00;100698.59;5018279;28;20104;-67
2023/08/31 00:54:56;;;;;;;7.03;3.63;;;;;;;12.24;100.00;100700.25;5013938;28;20168;-67
2023/08/31 00:57:26;;;;;;;7.68;3.47;;;;;;;12.26;100.00;100703.56;5015891;28;20053;-67
2023/08/31 00:59:54;;;;;;;7.15;3.78;;;;;;;12.24;100.00;100708.97;5030070;28;20567;-67
2023/08/31 01:02:48;;;;;;;9.10;4.05;;;;;;;12.22;100.00;100702.22;5019105;28;20121;-66
2023/08/31 01:05:29;;;;;;;9.90;4.82;;;;;;;12.16;100.00;100708.94;5024845;28;20046;-67
2023/08/31 01:08:12;;;;;;;7.80;4.47;;;;;;;12.13;100.00;100703.19;5021345;28;20144;-67
2023/08/31 01:10:54;;;;;;;7.32;4.18;;;;;;;12.17;100.00;100699.25;5013811;28;20136;-67
2023/08/31 01:13:24;;;;;;;6.70;4.47;;;;;;;12.12;100.00;100707.63;5007468;28;20549;-67
2023/08/31 01:15:55;;;;;;;8.80;5.05;;;;;;;12.15;100.00;100707.31;5004334;28;20134;-67
2023/08/31 01:18:25;;;;;;;10.68;5.15;;;;;;;12.11;100.00;100711.22;5008171;28;20148;-67
2023/08/31 01:21:11;;;;;;;8.70;5.78;;;;;;;12.09;100.00;100715.00;4994994;28;20459;-68
2023/08/31 01:23:55;;;;;;;8.23;5.43;;;;;;;12.11;100.00;100713.84;5015051;28;20057;-67
2023/08/31 01:26:23;;;;;;;8.93;5.28;;;;;;;12.13;100.00;100718.94;5000279;28;20686;-67
2023/08/31 01:28:51;;;;;;;10.63;6.77;;;;;;;12.03;100.00;100726.97;5011517;28;20049;-67
2023/08/31 01:31:17;;;;;;;9.10;6.60;;;;;;;11.98;100.00;100724.00;5019177;28;20085;-67
2023/08/31 01:33:44;;;;;;;11.23;7.28;;;;;;;11.90;100.00;100726.56;5012701;28;20166;-67
2023/08/31 01:36:17;;;;;;;10.27;6.55;;;;;;;11.92;100.00;100719.34;5003761;28;20541;-68
2023/08/31 01:38:50;;;;;;;11.45;7.05;;;;;;;11.93;100.00;100727.09;5013932;28;20643;-68
2023/08/31 01:41:19;;;;;;;8.27;6.80;;;;;;;11.93;100.00;100727.09;5017269;28;20051;-67
2023/08/31 01:43:48;;;;;;;11.48;7.65;;;;;;;11.95;100.00;100726.94;5001415;28;20073;-67
2023/08/31 01:46:15;;;;;;;;;;;;;;;12.00;100.00;100722.03;5003342;28;20092;-67
2023/08/31 01:48:41;;;;;;;11.25;7.30;;;;;;;11.95;100.00;100719.06;5002291;28;19999;-68
2023/08/31 01:51:11;;;;;;;10.15;7.63;;;;;;;11.93;100.00;100729.72;5008233;28;20054;-67
2023/08/31 01:53:37;;;;;;;11.25;7.80;;;;;;;11.99;100.00;100721.19;5010692;28;20113;-67
2023/08/31 01:56:04;;;;;;;11.77;8.20;;;;;;;12.01;100.00;100716.59;5001547;28;20053;-67
2023/08/31 01:58:31;;;;;;;12.20;8.23;;;;;;;12.00;100.00;100714.97;5017004;28;20048;-67
2023/08/31 02:00:57;;;;;;;12.10;8.73;;;;;;;11.99;100.00;100713.31;5003355;28;20092;-67
2023/08/31 02:03:24;;;;;;;11.50;8.65;;;;;;;12.00;100.00;100714.97;5009203;28;20053;-67
2023/08/31 02:05:50;;;;;;;12.20;8.57;;;;;;;12.04;100.00;100712.84;4997591;28;20049;-66
2023/08/31 02:08:17;;;;;;;13.23;8.65;;;;;;;12.09;100.00;100728.16;4993754;28;20085;-66
2023/08/31 02:10:47;;;;;;;12.18;9.20;;;;;;;12.07;100.00;100725.66;5020945;28;20053;-66
2023/08/31 02:13:15;;;;;;;14.27;8.70;;;;;;;12.16;100.00;100723.91;5003312;28;20045;-67
2023/08/31 02:15:43;;;;;;;11.63;8.60;;;;;;;12.16;100.00;100729.97;5015886;28;20517;-67
2023/08/31 02:18:10;;;;;;;12.15;8.50;;;;;;;12.18;100.00;100722.75;5006990;28;20136;-66
2023/08/31 02:20:36;;;;;;;12.70;8.05;;;;;;;12.25;100.00;100729.03;5025364;28;20049;-67
2023/08/31 02:23:03;;;;;;;14.57;9.05;;;;;;;12.31;100.00;100734.63;5011402;28;20056;-67
2023/08/31 02:25:30;;;;;;;13.00;7.70;;;;;;;12.31;100.00;100727.56;5006928;28;20100;-67
2023/08/31 02:27:56;;;;;;;12.93;9.18;;;;;;;12.32;100.00;100717.88;5005066;28;20064;-66
2023/08/31 02:30:22;;;;;;;11.30;8.30;;;;;;;12.39;100.00;100726.78;5013147;28;20042;-66
2023/08/31 02:32:49;;;;;;;12.27;8.95;;;;;;;12.38;100.00;100714.59;5022078;28;20049;-66
2023/08/31 02:35:16;;;;;;;14.18;9.38;;;;;;;12.39;100.00;100724.16;5005739;28;20045;-67
2023/08/31 02:37:42;;;;;;;11.75;8.75;;;;;;;12.39;100.00;100721.53;5018143;28;20096;-66
2023/08/31 02:40:09;;;;;;;11.75;8.93;;;;;;;12.46;100.00;100720.69;5012911;28;20411;-66
2023/08/31 02:42:36;;;;;;;13.00;8.50;;;;;;;12.40;100.00;100728.41;5016791;28;20045;-66
2023/08/31 02:45:03;;;;;;;13.45;10.00;;;;;;;12.39;100.00;100727.59;5012424;28;20049;-66
2023/08/31 02:47:29;;;;;;;13.27;8.93;;;;;;;12.40;100.00;100725.78;5001479;28;20601;-67
2023/08/31 02:49:56;;;;;;;12.43;8.43;;;;;;;12.39;100.00;100718.88;5020336;28;20064;-66
2023/08/31 02:52:22;;;;;;;10.80;7.88;;;;;;;12.40;100.00;100721.34;5017135;28;20045;-67
2023/08/31 02:54:49;;;;;;;15.20;9.38;;;;;;;12.37;100.00;100716.41;5019241;28;20544;-66
2023/08/31 02:57:19;;;;;;;14.88;9.48;;;;;;;12.38;100.00;100712.78;4992278;28;20058;-67
2023/08/31 02:59:50;;;;;;;13.10;8.88;;;;;;;12.42;100.00;100719.38;5011406;28;20086;-67
2023/08/31 03:02:16;;;;;;;12.75;8.25;;;;;;;12.52;100.00;100723.66;5029154;28;20053;-67
2023/08/31 03:04:43;;;;;;;11.27;8.18;;;;;;;12.60;100.00;100731.56;5018967;28;20053;-67
2023/08/31 03:07:13;;;;;;;12.95;8.32;;;;;;;12.69;100.00;100743.75;5028638;28;20049;-67
2023/08/31 03:09:40;;;;;;;12.43;8.95;;;;;;;12.69;100.00;100741.13;5012865;28;20049;-67
2023/08/31 03:12:07;;;;;;;13.38;9.23;;;;;;;12.74;100.00;100743.28;5022244;28;20104;-66
2023/08/31 03:14:33;;;;;;;11.25;8.57;;;;;;;12.74;100.00;100741.47;5005085;28;20054;-67
2023/08/31 03:17:00;;;;;;;15.52;8.93;;;;;;;12.82;100.00;100743.31;5015623;28;20076;-67
2023/08/31 03:19:26;;;;;;;11.60;8.35;;;;;;;12.89;100.00;100748.72;5023379;28;20088;-67
2023/08/31 03:21:53;;;;;;;12.23;7.80;;;;;;;12.98;100.00;100751.22;5014912;28;20111;-67
2023/08/31 03:24:19;;;;;;;12.25;8.18;;;;;;;13.01;100.00;100750.88;5017595;28;20046;-67
2023/08/31 03:26:46;;;;;;;13.65;9.68;;;;;;;13.08;100.00;100740.50;5019236;28;20131;-67
2023/08/31 03:29:12;;;;;;;13.27;9.20;;;;;;;13.11;100.00;100732.25;5015118;28;20049;-66
2023/08/31 03:31:38;;;;;;;12.85;9.90;;;;;;;13.14;100.00;100726.69;5022943;28;20085;-67
2023/08/31 03:34:05;;;;;;;13.95;9.18;;;;;;;13.16;100.00;100731.78;5019021;28;20136;-67
2023/08/31 03:36:32;;;;;;;12.73;9.40;;;;;;;13.16;100.00;100726.53;5011202;28;20045;-67
2023/08/31 03:38:58;;;;;;;12.57;9.43;;;;;;;13.12;100.00;100728.66;5008679;28;20081;-66
2023/08/31 03:41:25;;;;;;;13.20;9.85;;;;;;;13.12;100.00;100720.75;5018159;28;20124;-67
2023/08/31 03:43:51;;;;;;;13.77;9.75;;;;;;;13.11;100.00;100720.91;5011510;28;20124;-67
2023/08/31 03:46:18;;;;;;;14.38;10.40;;;;;;;13.13;100.00;100719.78;5020419;28;20050;-67
2023/08/31 03:48:44;;;;;;;12.95;9.90;;;;;;;13.17;100.00;100717.63;5017259;28;20052;-67
2023/08/31 03:51:11;;;;;;;13.38;9.00;;;;;;;13.11;100.00;100707.75;5021284;28;20041;-67
2023/08/31 03:53:37;;;;;;;12.50;9.07;;;;;;;13.13;100.00;100711.03;4998844;28;20052;-66
2023/08/31 03:56:04;;;;;;;16.65;10.05;;;;;;;12.97;100.00;100714.50;5004946;28;20558;-67
2023/08/31 03:58:31;;;;;;;11.70;10.25;;;;;;;12.95;100.00;100714.66;5018029;28;20252;-67
2023/08/31 04:00:57;;;;;;;13.00;9.73;;;;;;;12.97;100.00;100717.13;5007086;28;20702;-67
2023/08/31 04:03:25;;;;;;;14.35;10.63;;;;;;;12.97;100.00;100717.94;5022339;28;20261;-67
2023/08/31 04:05:55;;;;;;;15.88;10.73;;;;;;;13.01;100.00;100718.44;5001094;28;20124;-67
2023/08/31 04:08:22;;;;;;;12.38;9.50;;;;;;;12.96;100.00;100718.97;5016589;28;20137;-67
2023/08/31 04:10:49;;;;;;;13.35;10.43;;;;;;;12.97;100.00;100719.78;5021342;28;20863;-66
2023/08/31 04:13:15;;;;;;;14.57;10.80;;;;;;;12.88;100.00;100720.75;5013076;28;20132;-67
2023/08/31 04:15:42;;;;;;;13.70;9.80;;;;;;;12.83;100.00;100723.88;5016120;28;20045;-67
2023/08/31 04:18:08;;;;;;;12.52;9.80;;;;;;;12.89;100.00;100730.31;5008352;28;20120;-67
2023/08/31 04:20:35;;;;;;;12.05;9.77;;;;;;;12.93;100.00;100732.44;5014520;28;20045;-67
2023/08/31 04:23:01;;;;;;;15.35;9.55;;;;;;;12.91;100.00;100725.69;5012110;28;20083;-67
2023/08/31 04:25:31;;;;;;;13.90;9.77;;;;;;;12.98;100.00;100734.59;5020636;28;20060;-67
2023/08/31 04:27:58;;;;;;;14.25;9.93;;;;;;;12.94;100.00;100734.09;5014867;28;20057;-67
2023/08/31 04:30:24;;;;;;;14.32;10.13;;;;;;;12.88;100.00;100737.38;5006759;28;20444;-67
2023/08/31 04:32:51;;;;;;;16.15;9.95;;;;;;;12.89;100.00;100744.28;5019640;28;20123;-67
2023/08/31 04:35:17;;;;;;;16.40;10.50;;;;;;;12.75;100.00;100744.94;5017772;28;20053;-67
2023/08/31 04:37:45;;;;;;;13.60;9.90;;;;;;;12.78;100.00;100737.53;5019088;28;20557;-67
2023/08/31 04:40:12;;;;;;;12.80;9.80;;;;;;;12.73;100.00;100752.16;5013522;28;20683;-67
2023/08/31 04:42:39;;;;;;;12.25;9.82;;;;;;;12.60;100.00;100745.56;5017868;28;20049;-66
2023/08/31 04:45:06;;;;;;;15.25;9.95;;;;;;;12.56;100.00;100751.31;5018800;28;20045;-67
2023/08/31 04:47:32;;;;;;;13.20;9.57;;;;;;;12.55;100.00;100752.31;5015195;28;20061;-67
2023/08/31 04:49:59;;;;;;;12.85;9.35;;;;;;;12.55;100.00;100742.59;5024507;28;20391;-67
2023/08/31 04:52:26;;;;;;;14.23;10.00;;;;;;;12.54;100.00;100748.00;5001729;28;20199;-67
2023/08/31 04:54:52;;;;;;;17.52;9.70;;;;;;;12.56;100.00;100749.47;5024464;28;20099;-67
2023/08/31 04:57:19;;;;;;;13.65;9.40;;;;;;;12.58;100.00;100757.22;5026751;28;20049;-66
2023/08/31 04:59:46;;;;;;;15.25;9.57;;;;;;;12.60;100.00;100761.38;5015580;28;20557;-67
2023/08/31 05:02:12;;;;;;;12.52;9.80;;;;;;;12.57;100.00;100768.75;5020074;28;20045;-68
2023/08/31 05:04:39;;;;;;;17.48;10.10;;;;;;;12.61;100.00;100772.69;5012798;28;20476;-66
2023/08/31 05:07:05;;;;;;;15.95;10.57;;;;;;;12.60;100.00;100776.31;5013998;28;20045;-67
2023/08/31 05:09:34;;;;;;;14.93;10.98;;;;;;;12.63;100.00;100774.19;4986443;28;20136;-67
2023/08/31 05:12:02;;;;;;;17.38;11.30;;;;;;;12.72;100.00;100776.81;5017743;28;20054;-67
2023/08/31 05:14:29;;;;;;;15.52;11.02;;;;;;;12.72;100.00;100777.66;5009798;28;20050;-67
2023/08/31 05:16:56;;;;;;;22.75;11.23;;;;;;;12.72;100.00;100788.19;5004432;28;20516;-68
2023/08/31 05:19:22;;;;;;;16.35;10.98;;;;;;;12.76;100.00;100797.41;5021497;28;20490;-67
2023/08/31 05:21:50;;;;;;;14.15;10.90;;;;;;;12.74;100.00;100806.44;5003527;28;20060;-67
2023/08/31 05:24:17;;;;;;;16.38;11.57;;;;;;;12.71;100.00;100822.56;5017472;28;20104;-67
2023/08/31 05:26:43;;;;;;;15.15;11.85;;;;;;;12.74;100.00;100817.81;5007648;28;20072;-67
2023/08/31 05:29:10;;;;;;;18.45;12.20;;;;;;;12.75;100.00;100821.25;5014683;28;20330;-68
2023/08/31 05:31:37;;;;;;;15.18;12.50;;;;;;;12.79;100.00;100826.03;5025741;28;20049;-67
2023/08/31 05:34:04;;;;;;;22.83;12.73;;;;;;;12.78;100.00;100823.56;5016864;28;20446;-68
2023/08/31 05:36:30;;;;;;;16.75;13.55;;;;;;;12.70;100.00;100829.66;5015938;28;20450;-68
2023/08/31 05:38:57;;;;;;;25.17;14.68;;;;;;;12.71;100.00;100822.56;5006827;28;20042;-70
2023/08/31 05:41:23;;;;;;;18.33;14.32;;;;;;;12.62;100.00;100829.59;5015646;28;20046;-70
2023/08/31 05:43:50;;;;;;;21.25;13.80;;;;;;;12.63;100.00;100828.63;5000518;28;20103;-68
2023/08/31 05:46:16;;;;;;;18.35;14.38;;;;;;;12.64;100.00;100830.25;5013936;28;20056;-69
2023/08/31 05:48:43;;;;;;;20.15;14.07;;;;;;;12.62;100.00;100840.13;5012951;28;20042;-69
2023/08/31 05:51:10;;;;;;;18.38;13.45;;;;;;;12.68;100.00;100838.66;5016261;28;20500;-68
2023/08/31 05:53:37;;;;;;;19.90;15.85;;;;;;;12.72;100.00;100840.84;5019269;28;20049;-68
2023/08/31 05:56:04;;;;;;;21.15;14.75;;;;;;;12.66;100.00;100836.19;4998062;28;20049;-69
2023/08/31 05:58:32;;;;;;;17.95;15.32;;;;;;;12.60;100.00;100840.31;5004459;28;20053;-68
2023/08/31 06:01:00;;;;;;;19.83;16.00;;;;;;;12.52;100.00;100839.44;5006573;28;20046;-68
2023/08/31 06:03:27;;;;;;;18.75;14.57;;;;;;;12.60;100.00;100848.19;5005789;28;20050;-68
2023/08/31 06:05:54;;;;;;;19.05;15.63;;;;;;;12.60;100.00;100842.09;5004688;28;20217;-67
2023/08/31 06:08:21;;;;;;;19.23;15.48;;;;;;;12.63;100.00;100845.22;5019768;28;20189;-67
2023/08/31 06:10:47;;;;;;;19.95;16.08;;;;;;;12.64;100.00;100836.38;5014586;28;20059;-67
2023/08/31 06:13:14;;;;;;;21.63;16.95;;;;;;;12.71;100.00;100838.34;5008717;28;20049;-66
2023/08/31 06:15:40;;;;;;;20.25;16.70;;;;;;;12.64;100.00;100838.16;5006353;28;20141;-67
2023/08/31 06:18:07;;;;;;;24.30;17.90;;;;;;;12.63;100.00;100841.78;5010395;28;20053;-66
2023/08/31 06:20:33;;;;;;;22.02;15.55;;;;;;;12.64;100.00;100846.91;5025858;28;20049;-66
2023/08/31 06:23:00;;;;;;;21.35;16.55;;;;;;;12.59;100.00;100850.97;5014371;28;20869;-66
2023/08/31 06:25:26;;;;;;;23.10;16.90;;;;;;;12.56;100.00;100862.63;4978481;28;20515;-66
2023/08/31 06:27:53;;;;;;;22.15;17.52;;;;;;;12.57;100.00;100871.38;5024430;28;20140;-70
2023/08/31 06:30:19;;;;;;;21.48;16.45;;;;;;;12.59;100.00;100864.94;5008722;28;20127;-69
2023/08/31 06:32:47;;;;;;;20.30;16.35;;;;;;;12.64;100.00;100867.09;5023294;28;20060;-68
2023/08/31 06:35:17;;;;;;;21.17;15.43;;;;;;;12.61;100.00;100862.16;5005813;28;20054;-68
2023/08/31 06:37:45;;;;;;;19.98;14.73;;;;;;;12.64;100.00;100857.41;5024079;28;20506;-67
2023/08/31 06:40:12;;;;;;;20.67;15.07;;;;;;;12.66;100.00;100867.75;5017124;28;20103;-66
2023/08/31 06:42:39;;;;;;;22.77;16.33;;;;;;;12.74;100.00;100866.97;5012439;28;20518;-66
2023/08/31 06:45:07;;;;;;;19.15;15.90;;;;;;;12.82;100.00;100875.75;5016030;28;20054;-67
2023/08/31 06:47:34;;;;;;;19.45;15.50;;;;;;;12.87;100.00;100872.63;5005628;28;20050;-66
2023/08/31 06:50:01;;;;;;;22.17;17.15;;;;;;;12.92;100.00;100888.78;5017852;28;20060;-67
2023/08/31 06:52:28;;;;;;;19.23;16.10;;;;;;;12.96;100.00;100884.81;4997814;28;20459;-66
2023/08/31 06:54:58;;;;;;;18.92;15.35;;;;;;;13.01;100.00;100886.97;5009706;28;20085;-67
2023/08/31 06:57:26;;;;;;;17.67;15.48;;;;;;;13.09;100.00;100892.25;5023818;28;20469;-67
2023/08/31 06:59:53;;;;;;;20.00;13.82;;;;;;;13.14;100.00;100895.22;5001151;28;20057;-67
2023/08/31 07:02:22;;;;;;;18.40;14.75;;;;;;;13.08;100.00;100892.44;5009195;28;20073;-66
2023/08/31 07:04:49;;;;;;;19.70;14.25;;;;;;;13.06;100.00;100889.94;5011788;28;20051;-67
2023/08/31 07:07:16;;;;;;;19.88;14.40;;;;;;;12.99;100.00;100881.84;5015200;28;21141;-67
2023/08/31 07:09:43;;;;;;;18.38;14.05;;;;;;;13.03;100.00;100896.38;5008264;28;20127;-67
2023/08/31 07:12:10;;;;;;;19.05;13.98;;;;;;;13.05;100.00;100893.56;5015769;28;20057;-66
2023/08/31 07:14:38;;;;;;;17.70;14.65;;;;;;;13.15;100.00;100896.06;5002556;28;20075;-67
2023/08/31 07:17:05;;;;;;;21.38;13.55;;;;;;;13.19;100.00;100905.28;5007243;28;20057;-67
2023/08/31 07:19:31;;;;;;;17.10;12.02;;;;;;;13.30;100.00;100907.63;5019840;28;20111;-67
2023/08/31 07:21:59;;;;;;;16.08;13.23;;;;;;;13.22;100.00;100910.22;5001688;28;20121;-67
2023/08/31 07:24:25;;;;;;;15.80;13.52;;;;;;;13.28;100.00;100908.78;5018127;28;20041;-67
2023/08/31 07:26:52;;;;;;;23.83;13.00;;;;;;;13.34;100.00;100910.78;5012822;28;20425;-67
2023/08/31 07:29:18;;;;;;;16.65;13.45;;;;;;;13.30;100.00;100915.53;5006818;28;20057;-67
2023/08/31 07:31:45;;;;;;;18.40;12.13;;;;;;;13.38;100.00;100918.19;5008245;28;20412;-68
2023/08/31 07:34:12;;;;;;;17.73;11.45;;;;;;;13.35;100.00;100915.03;5010435;28;20052;-68
2023/08/31 07:36:39;;;;;;;17.02;12.00;;;;;;;13.33;100.00;100920.50;5019155;28;20056;-71
2023/08/31 07:39:05;;;;;;;19.27;10.73;;;;;;;13.36;100.00;100924.63;5002071;28;20053;-70
2023/08/31 07:41:32;;;;;;;17.80;12.68;;;;;;;13.37;100.00;100924.47;5031338;28;20061;-69
2023/08/31 07:43:58;;;;;;;17.33;11.10;;;;;;;13.37;100.00;100918.38;5012989;28;20073;-68
2023/08/31 07:46:30;;;;;;;16.33;11.45;;;;;;;13.46;100.00;100920.00;5021512;28;20140;-68
2023/08/31 07:48:57;;;;;;;15.93;10.38;;;;;;;13.51;100.00;100935.34;5018049;28;20052;-67
2023/08/31 07:51:25;;;;;;;16.85;11.38;;;;;;;13.54;100.00;100941.09;5016035;28;20063;-68
2023/08/31 07:53:52;;;;;;;16.80;10.98;;;;;;;13.42;100.00;100937.94;5024689;28;20092;-70
2023/08/31 07:56:19;;;;;;;21.33;10.05;;;;;;;13.47;100.00;100941.94;5018584;28;20544;-69
2023/08/31 07:58:45;;;;;;;16.63;10.70;;;;;;;13.47;100.00;100940.13;5024872;28;20049;-69
2023/08/31 08:01:12;;;;;;;16.10;11.23;;;;;;;13.49;100.00;100939.97;4996108;28;20059;-69
2023/08/31 08:03:38;;;;;;;18.30;10.93;;;;;;;13.53;100.00;100947.38;5022327;28;20057;-67
2023/08/31 08:06:05;;;;;;;15.30;10.73;;;;;;;13.52;100.00;100950.97;5026776;28;20141;-69
2023/08/31 08:08:32;;;;;;;17.17;10.48;;;;;;;13.56;100.00;100954.13;5015021;28;20072;-68
2023/08/31 08:10:59;;;;;;;16.15;10.45;;;;;;;13.57;100.00;100948.69;5020607;28;20053;-68
2023/08/31 08:13:26;;;;;;;14.32;11.00;;;;;;;13.59;100.00;100949.34;5017977;28;20053;-66
2023/08/31 08:15:52;;;;;;;16.65;10.90;;;;;;;13.73;100.00;100947.06;5021808;28;20819;-67
2023/08/31 08:18:19;;;;;;;21.38;11.07;;;;;;;13.77;100.00;100949.19;5017847;28;20049;-67
2023/08/31 08:20:50;;;;;;;17.73;11.50;;;;;;;13.81;100.00;100949.69;5025979;28;20510;-65
2023/08/31 08:23:17;;;;;;;17.63;11.93;;;;;;;13.89;100.00;100943.59;5031428;28;20100;-66
2023/08/31 08:25:43;;;;;;;16.08;11.38;;;;;;;14.02;100.00;100939.47;5012469;28;20119;-66
2023/08/31 08:28:10;;;;;;;14.73;11.48;;;;;;;14.12;100.00;100943.75;5023314;28;20412;-65
2023/08/31 08:30:36;;;;;;;18.10;11.85;;;;;;;14.22;100.00;100939.94;5014870;28;20049;-66
2023/08/31 08:33:03;;;;;;;17.60;11.98;;;;;;;14.30;100.00;100949.66;5022819;28;20097;-65
2023/08/31 08:35:30;;;;;;;17.15;10.68;;;;;;;14.46;100.00;100942.72;5020721;28;20044;-66
2023/08/31 08:37:57;;;;;;;12.82;9.65;;;;;;;14.80;100.00;100948.56;5028384;28;20053;-66
2023/08/31 08:40:24;;;;;;;14.30;12.30;;;;;;;14.86;100.00;100952.34;5026093;28;20053;-66
2023/08/31 08:42:54;;;;;;;16.25;12.10;;;;;;;15.06;100.00;100955.41;5009527;28;20552;-66
2023/08/31 08:45:25;;;;;;;15.23;10.98;;;;;;;15.13;100.00;100956.38;5021849;28;20053;-67
2023/08/31 08:47:52;;;;;;;15.02;10.88;;;;;;;15.26;100.00;100950.50;5016120;28;20697;-67
2023/08/31 08:50:21;;;;;;;14.98;10.65;;;;;;;15.51;100.00;100950.38;5023209;28;20057;-68
2023/08/31 08:52:47;;;;;;;12.93;9.80;;;;;;;15.61;100.00;100949.13;5025944;28;20058;-68
2023/08/31 08:55:15;;;;;;;13.20;8.27;;;;;;;15.75;100.00;100950.19;5021107;28;20049;-67
2023/08/31 08:57:42;;;;;;;14.03;9.00;;;;;;;15.92;100.00;100958.03;5005377;28;20053;-68
2023/08/31 09:00:09;;;;;;;12.40;7.68;;;;;;;15.99;100.00;100957.13;4985200;28;20067;-67
2023/08/31 09:02:35;;;;;;;13.25;8.50;;;;;;;16.14;100.00;100956.34;5021312;28;20538;-67
2023/08/31 09:05:02;;;;;;;11.75;7.82;;;;;;;16.26;100.00;100957.53;5011192;28;20572;-67
2023/08/31 09:07:35;;;;;;;10.35;8.07;;;;;;;16.56;100.00;100955.75;5022028;28;20053;-67
2023/08/31 09:10:03;;;;;;;14.13;7.50;;;;;;;16.80;100.00;100951.19;5004482;28;20113;-68
2023/08/31 09:12:30;;;;;;;12.10;7.10;;;;;;;16.91;100.00;100956.00;5017538;28;20083;-68
2023/08/31 09:15:06;;;;;;;10.90;6.25;;;;;;;16.96;100.00;100950.19;5013259;28;20050;-67
2023/08/31 09:17:47;;;;;;;13.68;6.47;;;;;;;17.10;100.00;100951.16;5021318;28;20136;-68
2023/08/31 09:20:14;;;;;;;10.80;6.45;;;;;;;17.30;100.00;100954.03;5015376;28;20065;-68
2023/08/31 09:22:48;;;;;;;11.65;5.88;;;;;;;17.57;100.00;100955.94;5015458;28;20056;-68
2023/08/31 09:25:15;;;;;;;8.45;5.45;;;;;;;17.55;100.00;100954.50;5003803;28;20088;-68
2023/08/31 09:27:44;;;;;;;8.48;5.43;;;;;;;17.48;100.00;100958.91;5007214;28;20086;-68
2023/08/31 09:30:11;;;;;;;12.50;6.03;;;;;;;17.54;100.00;100950.19;5007391;28;20388;-68
2023/08/31 09:32:37;;;;;;;10.48;5.60;;;;;;;17.56;100.00;100954.31;5016343;28;20140;-68
2023/08/31 09:35:08;;;;;;;8.15;4.53;;;;;;;17.55;100.00;100957.97;5024977;28;20065;-68
2023/08/31 09:37:58;;;;;;;9.75;5.38;;;;;;;17.46;100.00;100955.63;5010240;28;20057;-69
2023/08/31 09:40:25;;;;;;;8.75;4.38;;;;;;;17.38;100.00;100954.72;5011389;28;20054;-67
2023/08/31 09:42:52;;;;;;;9.32;4.88;;;;;;;17.40;100.00;100957.19;5025900;28;20486;-68
2023/08/31 09:45:30;;;;;;;8.95;4.05;;;;;;;17.35;100.00;100967.56;5011921;28;20042;-68
2023/08/31 09:48:13;;;;;;;7.75;4.55;;;;;;;17.26;100.00;100958.06;5015035;28;20487;-68
2023/08/31 09:50:43;;;;;;;8.52;4.15;;;;;;;17.29;100.00;100952.38;5003942;28;20060;-68
2023/08/31 09:53:11;;;;;;;11.05;5.30;;;;;;;17.32;100.00;100954.66;5006377;28;20053;-68
2023/08/31 09:55:42;;;;;;;8.50;5.75;;;;;;;17.73;100.00;100952.22;5008476;28;20060;-68
2023/08/31 09:58:09;;;;;;;8.20;5.05;;;;;;;17.81;100.00;100951.25;5025854;28;20049;-68
2023/08/31 10:00:43;;;;;;;8.85;5.25;;;;;;;18.16;100.00;100952.19;5027609;28;20132;-68
2023/08/31 10:03:14;;;;;;;9.53;4.50;;;;;;;18.43;100.00;100946.25;5006666;28;20050;-68
2023/08/31 10:05:49;;;;;;;9.02;4.60;;;;;;;18.58;100.00;100939.78;5020853;28;20857;-68
2023/08/31 10:08:17;;;;;;;8.65;4.82;;;;;;;18.35;100.00;100933.94;5004899;28;20510;-67
2023/08/31 10:10:44;;;;;;;9.07;4.30;;;;;;;18.25;100.00;100944.06;5011965;28;20490;-68
2023/08/31 10:13:11;;;;;;;7.60;4.32;;;;;;;18.13;100.00;100941.13;5002644;28;20053;-67
2023/08/31 10:15:41;;;;;;;6.65;4.03;;;;;;;18.01;100.00;100938.19;5014077;28;20050;-68
2023/08/31 10:18:07;;;;;;;9.45;4.15;;;;;;;18.04;100.00;100942.31;5014868;28;20077;-67
2023/08/31 10:20:35;;;;;;;7.57;4.07;;;;;;;18.01;100.00;100942.69;5018914;28;20050;-68
2023/08/31 10:23:06;;;;;;;7.82;4.50;;;;;;;17.98;100.00;100947.34;5020472;28;20718;-67
2023/08/31 10:25:53;;;;;;;8.18;3.60;;;;;;;17.94;100.00;100937.31;5003437;28;20049;-67
2023/08/31 10:28:22;;;;;;;7.63;3.28;;;;;;;17.96;100.00;100949.38;4992877;28;20081;-67
2023/08/31 10:31:18;;;;;;;9.63;3.15;;;;;;;17.95;100.00;100954.88;5017826;28;20120;-67
2023/08/31 10:33:55;;;;;;;5.07;2.92;;;;;;;17.86;100.00;100956.03;5025580;28;20056;-67
2023/08/31 10:36:22;;;;;;;4.13;2.30;;;;;;;17.87;100.00;100949.72;5000948;28;20049;-67
2023/08/31 10:38:57;;;;;;;5.75;2.70;;;;;;;18.10;100.00;100957.44;5009886;28;20064;-67
2023/08/31 10:41:25;;;;;;;6.47;2.88;;;;;;;17.98;100.00;100952.66;5014649;28;20881;-67
2023/08/31 10:43:59;;;;;;;4.90;2.80;;;;;;;18.05;100.00;100949.22;5015344;28;20056;-67
2023/08/31 10:46:39;;;;;;;5.38;2.67;;;;;;;18.09;100.00;100950.50;5020935;28;20061;-67
2023/08/31 10:49:08;;;;;;;4.03;2.67;;;;;;;18.11;100.00;100951.97;5013494;28;20065;-67
2023/08/31 10:51:37;;;;;;;4.00;2.55;;;;;;;18.12;100.00;100955.44;5019857;28;20045;-68
2023/08/31 10:54:19;;;;;;;6.07;2.55;;;;;;;18.62;100.00;100955.31;5016528;28;20062;-67
2023/08/31 10:57:00;;;;;;;6.35;3.17;;;;;;;18.69;100.00;100957.00;5020343;28;20053;-67
2023/08/31 10:59:44;;;;;;;4.25;2.80;;;;;;;18.81;94.83;100956.47;5016638;28;20049;-67
2023/08/31 11:02:26;;;;;;;4.68;2.60;;;;;;;18.55;93.77;100950.00;5021164;28;20100;-68
2023/08/31 11:04:55;;;;;;;4.95;2.47;;;;;;;18.65;90.47;100952.28;4995085;28;20123;-68
2023/08/31 11:07:27;;;;;;;4.85;2.28;;;;;;;18.68;91.74;100955.38;5018978;28;20054;-68
2023/08/31 11:10:12;;;;;;;4.45;2.10;;;;;;;18.64;85.71;100954.13;5012311;28;20103;-68
2023/08/31 11:12:43;;;;;;;4.57;2.10;;;;;;;18.49;83.33;100956.91;5021289;28;20085;-68
2023/08/31 11:15:14;;;;;;;2.58;1.60;;;;;;;18.51;83.87;100954.88;5016022;28;20080;-68